createdAt,value
2023-03-07T00:01:45.007Z,99699.06
2023-03-07T00:04:12.752Z,99698.16
2023-03-07T00:06:40.384Z,99702.56
2023-03-07T00:09:09.109Z,99704.34
2023-03-07T00:11:36.875Z,99693.75
2023-03-07T00:14:07.776Z,99701.66
2023-03-07T00:16:35.677Z,99702.50
2023-03-07T00:19:05.178Z,99698.97
2023-03-07T00:21:33.007Z,99694.53
2023-03-07T00:24:00.670Z,99688.41
2023-03-07T00:26:29.127Z,99684.84
2023-03-07T00:28:56.870Z,99688.34
2023-03-07T00:31:25.453Z,99698.97
2023-03-07T00:33:53.208Z,99681.34
2023-03-07T00:36:23.681Z,99687.50
2023-03-07T00:38:52.075Z,99698.97
2023-03-07T00:41:21.960Z,99685.69
2023-03-07T00:43:49.687Z,99690.13
2023-03-07T00:46:19.842Z,99692.78
2023-03-07T00:48:48.014Z,99684.84
2023-03-07T00:51:17.540Z,99691.03
2023-03-07T00:53:47.006Z,99691.94
2023-03-07T00:56:17.052Z,99686.63
2023-03-07T00:58:45.534Z,99694.53
2023-03-07T01:01:15.295Z,99684.84
2023-03-07T01:03:43.712Z,99685.75
2023-03-07T01:06:15.413Z,99681.31
2023-03-07T01:08:43.330Z,99670.75
2023-03-07T01:11:13.199Z,99676.88
2023-03-07T01:13:41.241Z,99672.47
2023-03-07T01:16:10.706Z,99666.28
2023-03-07T01:18:38.539Z,99667.19
2023-03-07T01:21:13.380Z,99665.41
2023-03-07T01:23:41.083Z,99659.25
2023-03-07T01:26:12.281Z,99667.19
2023-03-07T01:28:41.732Z,99664.56
2023-03-07T01:31:10.103Z,99667.19
2023-03-07T01:33:38.074Z,99663.69
2023-03-07T01:36:06.400Z,99660.13
2023-03-07T01:38:34.801Z,99661.09
2023-03-07T01:41:02.772Z,99655.75
2023-03-07T01:43:31.986Z,99653.13
2023-03-07T01:46:39.826Z,99646.94
2023-03-07T01:49:11.562Z,99645.19
2023-03-07T01:51:42.680Z,99642.53
2023-03-07T01:54:11.899Z,99646.00
2023-03-07T01:56:40.673Z,99642.53
2023-03-07T01:59:09.490Z,99643.44
2023-03-07T02:01:39.092Z,99636.34
2023-03-07T02:04:14.073Z,99625.75
2023-03-07T02:06:41.976Z,99630.19
2023-03-07T02:09:15.904Z,99621.34
2023-03-07T02:11:45.757Z,99615.25
2023-03-07T02:14:13.492Z,99620.56
2023-03-07T02:16:42.996Z,99620.53
2023-03-07T02:19:23.167Z,99607.28
2023-03-07T02:22:01.051Z,99604.56
2023-03-07T02:24:33.744Z,99616.03
2023-03-07T02:27:02.974Z,99615.19
2023-03-07T02:29:30.668Z,99614.28
2023-03-07T02:31:58.334Z,99600.16
2023-03-07T02:34:28.401Z,99596.63
2023-03-07T02:37:00.623Z,99588.69
2023-03-07T02:39:30.300Z,99592.19
2023-03-07T02:42:01.709Z,99580.75
2023-03-07T02:44:31.168Z,99586.03
2023-03-07T02:46:58.869Z,99590.44
2023-03-07T02:49:26.579Z,99589.53
2023-03-07T02:51:57.572Z,99589.53
2023-03-07T02:54:26.147Z,99585.19
2023-03-07T02:56:53.978Z,99585.13
2023-03-07T02:59:21.619Z,99579.84
2023-03-07T03:01:50.798Z,99577.19
2023-03-07T03:04:20.116Z,99575.44
2023-03-07T03:06:47.949Z,99577.25
2023-03-07T03:09:15.616Z,99575.53
2023-03-07T03:11:43.361Z,99574.63
2023-03-07T03:14:13.986Z,99577.28
2023-03-07T03:16:42.430Z,99571.13
2023-03-07T03:19:11.484Z,99573.78
2023-03-07T03:21:39.368Z,99579.03
2023-03-07T03:24:08.356Z,99574.63
2023-03-07T03:26:37.150Z,99578.13
2023-03-07T03:29:06.065Z,99579.88
2023-03-07T03:31:35.246Z,99579.88
2023-03-07T03:34:05.112Z,99589.63
2023-03-07T03:36:34.284Z,99579.91
2023-03-07T03:39:02.015Z,99585.22
2023-03-07T03:41:29.713Z,99577.31
2023-03-07T03:43:57.505Z,99577.28
2023-03-07T03:46:25.405Z,99567.63
2023-03-07T03:48:53.957Z,99574.72
2023-03-07T03:51:22.603Z,99572.03
2023-03-07T03:53:52.060Z,99573.78
2023-03-07T03:56:21.793Z,99571.13
2023-03-07T03:58:51.510Z,99575.53
2023-03-07T04:01:20.171Z,99560.53
2023-03-07T04:03:50.476Z,99558.78
2023-03-07T04:06:20.249Z,99563.16
2023-03-07T04:08:48.814Z,99548.16
2023-03-07T04:11:18.384Z,99553.44
2023-03-07T04:13:46.052Z,99550.78
2023-03-07T04:16:14.030Z,99548.16
2023-03-07T04:18:42.900Z,99542.88
2023-03-07T04:21:11.662Z,99543.75
2023-03-07T04:23:39.751Z,99540.25
2023-03-07T04:26:08.574Z,99545.50
2023-03-07T04:28:45.724Z,99534.06
2023-03-07T04:31:14.789Z,99530.56
2023-03-07T04:33:43.925Z,99521.72
2023-03-07T04:36:11.792Z,99524.31
2023-03-07T04:38:40.548Z,99534.88
2023-03-07T04:41:08.570Z,99522.53
2023-03-07T04:43:37.637Z,99521.72
2023-03-07T04:46:05.608Z,99518.16
2023-03-07T04:48:33.376Z,99513.78
2023-03-07T04:51:01.634Z,99504.03
2023-03-07T04:53:29.334Z,99496.97
2023-03-07T04:55:59.624Z,99501.28
2023-03-07T04:58:27.508Z,99497.72
2023-03-07T05:00:57.746Z,99497.72
2023-03-07T05:03:27.447Z,99491.56
2023-03-07T05:05:55.514Z,99495.13
2023-03-07T05:08:23.764Z,99488.13
2023-03-07T05:10:51.480Z,99489.84
2023-03-07T05:13:19.370Z,99490.72
2023-03-07T05:15:51.833Z,99486.28
2023-03-07T05:18:21.202Z,99485.44
2023-03-07T05:20:49.907Z,99486.34
2023-03-07T05:23:18.102Z,99476.66
2023-03-07T05:25:46.864Z,99483.72
2023-03-07T05:28:14.682Z,99470.47
2023-03-07T05:30:42.345Z,99475.72
2023-03-07T05:33:10.114Z,99467.75
2023-03-07T05:35:39.536Z,99465.97
2023-03-07T05:38:07.732Z,99463.31
2023-03-07T05:40:35.463Z,99467.75
2023-03-07T05:43:03.658Z,99471.28
2023-03-07T05:45:31.469Z,99459.75
2023-03-07T05:47:59.299Z,99465.06
2023-03-07T05:50:27.211Z,99462.41
2023-03-07T05:52:56.240Z,99466.75
2023-03-07T05:55:23.976Z,99462.34
2023-03-07T05:57:54.656Z,99463.16
2023-03-07T06:00:23.455Z,99447.25
2023-03-07T06:02:51.203Z,99450.81
2023-03-07T06:05:18.874Z,99449.03
2023-03-07T06:07:46.533Z,99441.09
2023-03-07T06:10:15.619Z,99439.34
2023-03-07T06:12:43.315Z,99439.34
2023-03-07T06:15:11.360Z,99434.06
2023-03-07T06:17:40.675Z,99433.16
2023-03-07T06:20:09.765Z,99434.00
2023-03-07T06:22:38.205Z,99433.13
2023-03-07T06:25:06.752Z,99426.94
2023-03-07T06:27:36.226Z,99432.28
2023-03-07T06:30:05.582Z,99426.97
2023-03-07T06:32:33.500Z,99427.91
2023-03-07T06:35:01.225Z,99427.91
2023-03-07T06:37:29.026Z,99425.28
2023-03-07T06:39:56.677Z,99415.63
2023-03-07T06:42:24.457Z,99429.66
2023-03-07T06:44:53.847Z,99422.63
2023-03-07T06:47:21.528Z,99427.00
2023-03-07T06:49:49.147Z,99428.81
2023-03-07T06:52:17.210Z,99421.72
2023-03-07T06:54:44.943Z,99415.53
2023-03-07T06:57:12.617Z,99421.72
2023-03-07T06:59:40.336Z,99424.34
2023-03-07T07:02:14.319Z,99430.53
2023-03-07T07:04:42.077Z,99424.34
2023-03-07T07:07:09.884Z,99423.41
2023-03-07T07:09:37.632Z,99430.47
2023-03-07T07:12:07.016Z,99427.75
2023-03-07T07:14:34.996Z,99436.59
2023-03-07T07:17:02.797Z,99429.56
2023-03-07T07:19:31.912Z,99429.56
2023-03-07T07:21:59.732Z,99426.94
2023-03-07T07:24:27.526Z,99422.56
2023-03-07T07:26:55.790Z,99429.59
2023-03-07T07:29:24.036Z,99433.13
2023-03-07T07:31:51.919Z,99430.50
2023-03-07T07:34:19.707Z,99437.59
2023-03-07T07:36:48.903Z,99429.66
2023-03-07T07:39:17.655Z,99435.91
2023-03-07T07:41:45.996Z,99435.16
2023-03-07T07:44:13.758Z,99437.00
2023-03-07T07:46:41.403Z,99444.94
2023-03-07T07:49:09.147Z,99443.28
2023-03-07T07:51:36.800Z,99445.94
2023-03-07T07:54:05.884Z,99447.72
2023-03-07T07:56:33.604Z,99456.50
2023-03-07T07:59:01.241Z,99439.81
2023-03-07T08:01:28.969Z,99448.59
2023-03-07T08:03:56.680Z,99445.03
2023-03-07T08:06:26.649Z,99440.63
2023-03-07T08:08:55.333Z,99445.97
2023-03-07T08:11:25.384Z,99449.47
2023-03-07T08:13:53.505Z,99453.84
2023-03-07T08:16:24.271Z,99457.41
2023-03-07T08:18:53.634Z,99452.13
2023-03-07T08:21:22.271Z,99461.78
2023-03-07T08:23:50.242Z,99461.84
2023-03-07T08:26:18.610Z,99462.81
2023-03-07T08:28:48.060Z,99468.13
2023-03-07T08:31:17.600Z,99458.47
2023-03-07T08:33:47.568Z,99456.69
2023-03-07T08:36:15.840Z,99458.44
2023-03-07T08:38:44.036Z,99459.25
2023-03-07T08:41:11.735Z,99456.59
2023-03-07T08:43:40.136Z,99464.56
2023-03-07T08:46:09.308Z,99474.28
2023-03-07T08:48:36.961Z,99469.88
2023-03-07T08:51:06.621Z,99481.28
2023-03-07T08:53:34.555Z,99480.47
2023-03-07T08:56:02.194Z,99486.72
2023-03-07T08:58:35.117Z,99494.75
2023-03-07T09:01:03.600Z,99491.34
2023-03-07T09:03:33.312Z,99494.00
2023-03-07T09:06:01.546Z,99504.56
2023-03-07T09:08:29.287Z,99500.19
2023-03-07T09:10:59.790Z,99515.16
2023-03-07T09:13:27.651Z,99510.75
2023-03-07T09:15:55.740Z,99495.72
2023-03-07T09:18:23.521Z,99493.97
2023-03-07T09:20:52.531Z,99508.06
2023-03-07T09:23:20.172Z,99507.13
2023-03-07T09:25:47.847Z,99518.59
2023-03-07T09:28:15.710Z,99517.72
2023-03-07T09:30:43.475Z,99521.28
2023-03-07T09:33:11.223Z,99524.81
2023-03-07T09:35:39.097Z,99523.97
2023-03-07T09:38:08.136Z,99526.56
2023-03-07T09:40:36.119Z,99529.19
2023-03-07T09:43:11.316Z,99522.06
2023-03-07T09:45:49.003Z,99527.41
2023-03-07T09:48:38.323Z,99525.63
2023-03-07T09:51:16.062Z,99532.72
2023-03-07T09:53:48.947Z,99530.00
2023-03-07T09:56:20.831Z,99526.47
2023-03-07T09:58:55.926Z,99534.34
2023-03-07T10:01:28.780Z,99538.69
2023-03-07T10:04:02.123Z,99535.25
2023-03-07T10:06:34.819Z,99529.97
2023-03-07T10:09:06.201Z,99534.38
2023-03-07T10:11:54.165Z,99538.72
2023-03-07T10:14:37.259Z,99536.03
2023-03-07T10:17:13.580Z,99541.28
2023-03-07T10:19:48.534Z,99542.16
2023-03-07T10:22:20.897Z,99549.25
2023-03-07T10:25:16.321Z,99541.25
2023-03-07T10:27:47.584Z,99550.97
2023-03-07T10:30:19.008Z,99556.34
2023-03-07T10:32:48.308Z,99558.13
2023-03-07T10:35:20.874Z,99559.00
2023-03-07T10:37:51.006Z,99554.59
2023-03-07T10:40:25.379Z,99558.94
2023-03-07T10:42:53.991Z,99553.59
2023-03-07T10:45:21.999Z,99557.13
2023-03-07T10:47:49.817Z,99557.13
2023-03-07T10:50:35.793Z,99558.03
2023-03-07T10:53:09.347Z,99557.94
2023-03-07T10:55:41.376Z,99558.81
2023-03-07T10:58:21.401Z,99558.03
2023-03-07T11:01:01.362Z,99565.06
2023-03-07T11:03:45.926Z,99561.50
2023-03-07T11:06:28.838Z,99551.81
2023-03-07T11:08:57.111Z,99565.00
2023-03-07T11:11:32.004Z,99555.31
2023-03-07T11:14:08.139Z,99552.72
2023-03-07T11:16:41.857Z,99562.44
2023-03-07T11:19:35.470Z,99561.47
2023-03-07T11:22:04.978Z,99565.06
2023-03-07T11:24:37.480Z,99561.56
2023-03-07T11:27:06.943Z,99570.41
2023-03-07T11:29:34.874Z,99569.50
2023-03-07T11:32:12.636Z,99568.63
2023-03-07T11:34:47.004Z,99566.88
2023-03-07T11:37:29.257Z,99564.22
2023-03-07T11:40:16.592Z,99561.53
2023-03-07T11:42:58.861Z,99563.34
2023-03-07T11:45:34.502Z,99561.59
2023-03-07T11:48:20.864Z,99565.06
2023-03-07T11:50:55.035Z,99563.22
2023-03-07T11:53:33.361Z,99558.78
2023-03-07T11:56:19.024Z,99557.88
2023-03-07T11:59:14.528Z,99554.31
2023-03-07T12:01:52.727Z,99547.19
2023-03-07T12:04:40.024Z,99544.56
2023-03-07T12:07:22.976Z,99559.63
2023-03-07T12:09:56.179Z,99551.72
2023-03-07T12:12:49.172Z,99553.47
2023-03-07T12:15:29.178Z,99557.88
2023-03-07T12:18:11.352Z,99547.22
2023-03-07T12:20:47.165Z,99546.34
2023-03-07T12:23:19.815Z,99546.34
2023-03-07T12:25:51.319Z,99549.78
2023-03-07T12:28:25.707Z,99547.97
2023-03-07T12:31:12.416Z,99544.50
2023-03-07T12:33:57.941Z,99550.69
2023-03-07T12:36:32.076Z,99547.13
2023-03-07T12:39:05.461Z,99543.59
2023-03-07T12:41:54.148Z,99546.22
2023-03-07T12:44:34.542Z,99554.16
2023-03-07T12:47:12.856Z,99556.75
2023-03-07T12:49:49.909Z,99551.41
2023-03-07T12:52:29.146Z,99543.44
2023-03-07T12:55:02.448Z,99548.66
2023-03-07T12:57:34.088Z,99549.50
2023-03-07T13:00:06.186Z,99543.34
2023-03-07T13:02:43.027Z,99545.13
2023-03-07T13:05:20.443Z,99540.75
2023-03-07T13:07:49.790Z,99549.59
2023-03-07T13:10:20.772Z,99544.25
2023-03-07T13:12:48.680Z,99542.47
2023-03-07T13:15:46.648Z,99545.09
2023-03-07T13:18:29.656Z,99543.31
2023-03-07T13:21:14.818Z,99541.53
2023-03-07T13:23:42.690Z,99538.91
2023-03-07T13:26:13.464Z,99543.34
2023-03-07T13:28:51.984Z,99540.66
2023-03-07T13:31:39.248Z,99542.47
2023-03-07T13:34:48.742Z,99535.38
2023-03-07T13:37:50.994Z,99541.56
2023-03-07T13:40:54.618Z,99540.63
2023-03-07T13:44:01.392Z,99539.72
2023-03-07T13:46:47.068Z,99539.81
2023-03-07T13:49:38.039Z,99540.72
2023-03-07T13:52:32.953Z,99537.28
2023-03-07T13:55:03.028Z,99531.22
2023-03-07T13:57:38.452Z,99532.06
2023-03-07T14:00:24.065Z,99540.91
2023-03-07T14:02:53.603Z,99540.00
2023-03-07T14:05:22.303Z,99537.31
2023-03-07T14:07:52.973Z,99547.94
2023-03-07T14:10:25.332Z,99549.69
2023-03-07T14:13:11.696Z,99546.13
2023-03-07T14:15:49.136Z,99554.94
2023-03-07T14:18:29.751Z,99548.78
2023-03-07T14:21:03.666Z,99548.78
2023-03-07T14:23:53.371Z,99554.09
2023-03-07T14:26:26.235Z,99551.50
2023-03-07T14:29:00.198Z,99549.66
2023-03-07T14:31:30.884Z,99546.09
2023-03-07T14:33:58.845Z,99548.72
2023-03-07T14:36:30.281Z,99555.81
2023-03-07T14:39:02.179Z,99561.13
2023-03-07T14:41:47.977Z,99560.22
2023-03-07T14:44:51.925Z,99557.59
2023-03-07T14:47:34.319Z,99562.00
2023-03-07T14:50:10.678Z,99554.94
2023-03-07T14:52:38.515Z,99560.22
2023-03-07T14:55:15.264Z,99558.47
2023-03-07T14:57:46.261Z,99554.94
2023-03-07T15:00:24.747Z,99555.78
2023-03-07T15:02:54.795Z,99550.44
2023-03-07T15:05:24.647Z,99555.75
2023-03-07T15:07:52.604Z,99553.09
2023-03-07T15:10:26.150Z,99557.53
2023-03-07T15:12:55.614Z,99551.38
2023-03-07T15:15:30.940Z,99554.91
2023-03-07T15:18:04.633Z,99560.19
2023-03-07T15:20:33.109Z,99561.97
2023-03-07T15:23:05.231Z,99567.28
2023-03-07T15:25:38.749Z,99564.66
2023-03-07T15:28:08.975Z,99562.88
2023-03-07T15:30:39.140Z,99555.84
2023-03-07T15:33:16.633Z,99556.69
2023-03-07T15:35:45.073Z,99557.59
2023-03-07T15:38:19.313Z,99562.94
2023-03-07T15:40:48.421Z,99552.31
2023-03-07T15:43:25.540Z,99561.19
2023-03-07T15:46:03.797Z,99570.03
2023-03-07T15:48:38.497Z,99569.19
2023-03-07T15:51:16.262Z,99580.09
2023-03-07T15:53:46.219Z,99590.84
2023-03-07T15:56:27.553Z,99584.75
2023-03-07T15:59:01.429Z,99587.47
2023-03-07T16:01:29.271Z,99590.09
2023-03-07T16:03:59.495Z,99583.97
2023-03-07T16:06:40.223Z,99598.97
2023-03-07T16:09:12.225Z,99591.91
2023-03-07T16:11:42.110Z,99599.84
2023-03-07T16:14:20.873Z,99604.25
2023-03-07T16:16:49.417Z,99592.81
2023-03-07T16:19:17.202Z,99598.97
2023-03-07T16:21:44.897Z,99609.50
2023-03-07T16:24:12.830Z,99602.44
2023-03-07T16:26:43.741Z,99607.69
2023-03-07T16:29:16.704Z,99606.81
2023-03-07T16:31:44.443Z,99616.50
2023-03-07T16:34:16.413Z,99610.34
2023-03-07T16:36:44.421Z,99615.63
2023-03-07T16:39:13.579Z,99612.97
2023-03-07T16:41:46.698Z,99616.50
2023-03-07T16:44:17.685Z,99614.75
2023-03-07T16:46:47.074Z,99624.44
2023-03-07T16:49:18.179Z,99632.38
2023-03-07T16:51:51.063Z,99636.75
2023-03-07T16:54:27.313Z,99639.44
2023-03-07T16:56:58.264Z,99636.78
2023-03-07T16:59:34.555Z,99632.38
2023-03-07T17:02:03.290Z,99637.69
2023-03-07T17:04:31.008Z,99640.31
2023-03-07T17:07:04.830Z,99651.78
2023-03-07T17:09:33.360Z,99649.09
2023-03-07T17:12:02.450Z,99650.00
2023-03-07T17:14:32.013Z,99657.03
2023-03-07T17:16:59.766Z,99664.97
2023-03-07T17:19:30.176Z,99668.53
2023-03-07T17:21:59.683Z,99676.47
2023-03-07T17:24:28.971Z,99675.56
2023-03-07T17:26:59.814Z,99687.00
2023-03-07T17:29:33.311Z,99687.03
2023-03-07T17:32:00.976Z,99690.56
2023-03-07T17:34:31.420Z,99696.75
2023-03-07T17:37:00.270Z,99696.75
2023-03-07T17:39:29.653Z,99705.56
2023-03-07T17:41:57.372Z,99703.81
2023-03-07T17:44:25.280Z,99712.63
2023-03-07T17:46:55.049Z,99711.72
2023-03-07T17:49:23.507Z,99717.03
2023-03-07T17:51:52.879Z,99717.91
2023-03-07T17:54:21.317Z,99723.19
2023-03-07T17:56:49.097Z,99719.69
2023-03-07T17:59:16.993Z,99724.97
2023-03-07T18:01:44.694Z,99728.50
2023-03-07T18:04:13.800Z,99732.88
2023-03-07T18:06:41.642Z,99742.59
2023-03-07T18:09:11.028Z,99738.19
2023-03-07T18:11:38.803Z,99741.69
2023-03-07T18:14:06.525Z,99742.59
2023-03-07T18:16:34.318Z,99751.41
2023-03-07T18:19:04.142Z,99738.19
2023-03-07T18:21:35.108Z,99743.47
2023-03-07T18:24:03.213Z,99750.53
2023-03-07T18:26:31.211Z,99748.75
2023-03-07T18:28:59.324Z,99754.03
2023-03-07T18:31:29.091Z,99764.63
2023-03-07T18:33:57.212Z,99763.75
2023-03-07T18:36:26.648Z,99776.09
2023-03-07T18:38:55.806Z,99773.44
2023-03-07T18:41:25.766Z,99782.25
2023-03-07T18:43:54.708Z,99781.38
2023-03-07T18:46:24.220Z,99787.53
2023-03-07T18:48:54.877Z,99776.06
2023-03-07T18:51:25.175Z,99773.44
2023-03-07T18:53:53.654Z,99770.78
2023-03-07T18:56:22.748Z,99783.13
2023-03-07T18:58:50.408Z,99771.66
2023-03-07T19:01:20.978Z,99777.84
2023-03-07T19:03:50.517Z,99774.31
2023-03-07T19:06:20.809Z,99773.44
2023-03-07T19:08:48.551Z,99772.53
2023-03-07T19:11:16.693Z,99774.31
2023-03-07T19:13:45.764Z,99778.72
2023-03-07T19:16:15.811Z,99781.38
2023-03-07T19:18:44.146Z,99778.69
2023-03-07T19:21:13.689Z,99779.59
2023-03-07T19:23:42.022Z,99768.16
2023-03-07T19:26:12.055Z,99768.16
2023-03-07T19:28:40.606Z,99772.56
2023-03-07T19:31:11.641Z,99767.28
2023-03-07T19:33:40.097Z,99767.25
2023-03-07T19:36:10.499Z,99787.53
2023-03-07T19:38:38.611Z,99783.97
2023-03-07T19:41:10.558Z,99786.59
2023-03-07T19:43:38.235Z,99799.81
2023-03-07T19:46:07.585Z,99801.56
2023-03-07T19:48:38.112Z,99798.91
2023-03-07T19:51:14.414Z,99813.84
2023-03-07T19:53:43.718Z,99804.13
2023-03-07T19:56:13.392Z,99810.34
2023-03-07T19:58:43.526Z,99817.34
2023-03-07T20:01:16.037Z,99812.06
2023-03-07T20:03:45.574Z,99816.47
2023-03-07T20:06:18.724Z,99812.97
2023-03-07T20:08:49.548Z,99823.53
2023-03-07T20:11:20.311Z,99816.47
2023-03-07T20:13:48.523Z,99817.34
2023-03-07T20:16:20.947Z,99817.41
2023-03-07T20:18:51.527Z,99818.25
2023-03-07T20:21:20.390Z,99827.97
2023-03-07T20:23:49.384Z,99824.47
2023-03-07T20:26:24.724Z,99827.97
2023-03-07T20:28:54.928Z,99831.47
2023-03-07T20:31:23.008Z,99843.81
2023-03-07T20:34:02.652Z,99836.75
2023-03-07T20:36:32.274Z,99833.19
2023-03-07T20:39:01.545Z,99842.91
2023-03-07T20:41:30.486Z,99839.34
2023-03-07T20:43:59.867Z,99841.97
2023-03-07T20:46:27.995Z,99847.25
2023-03-07T20:48:58.233Z,99851.69
2023-03-07T20:51:28.255Z,99852.53
2023-03-07T20:53:57.862Z,99854.31
2023-03-07T20:56:27.081Z,99850.81
2023-03-07T20:58:55.836Z,99848.16
2023-03-07T21:01:25.060Z,99856.97
2023-03-07T21:03:54.018Z,99857.84
2023-03-07T21:06:23.221Z,99857.88
2023-03-07T21:08:50.940Z,99858.75
2023-03-07T21:11:21.458Z,99864.91
2023-03-07T21:13:50.357Z,99862.25
2023-03-07T21:16:19.800Z,99865.75
2023-03-07T21:18:48.215Z,99871.03
2023-03-07T21:21:18.094Z,99864.91
2023-03-07T21:23:48.068Z,99864.91
2023-03-07T21:26:18.589Z,99868.41
2023-03-07T21:28:46.702Z,99866.66
2023-03-07T21:31:17.610Z,99870.19
2023-03-07T21:33:47.565Z,99874.59
2023-03-07T21:36:15.994Z,99871.09
2023-03-07T21:38:44.846Z,99871.97
2023-03-07T21:41:14.260Z,99868.44
2023-03-07T21:43:42.204Z,99881.66
2023-03-07T21:46:12.589Z,99881.66
2023-03-07T21:48:40.640Z,99875.47
2023-03-07T21:51:09.142Z,99881.66
2023-03-07T21:53:37.060Z,99901.03
2023-03-07T21:56:07.120Z,99903.66
2023-03-07T21:58:36.984Z,99899.25
2023-03-07T22:01:11.660Z,99891.28
2023-03-07T22:03:39.744Z,99885.94
2023-03-07T22:06:08.270Z,99893.00
2023-03-07T22:08:36.599Z,99885.94
2023-03-07T22:11:06.853Z,99884.19
2023-03-07T22:13:39.505Z,99900.06
2023-03-07T22:16:09.488Z,99900.91
2023-03-07T22:18:37.421Z,99903.50
2023-03-07T22:21:09.998Z,99910.53
2023-03-07T22:23:37.910Z,99906.16
2023-03-07T22:26:07.249Z,99907.88
2023-03-07T22:28:36.963Z,99904.34
2023-03-07T22:31:06.641Z,99907.00
2023-03-07T22:33:34.705Z,99915.81
2023-03-07T22:36:04.422Z,99919.34
2023-03-07T22:38:32.640Z,99922.00
2023-03-07T22:41:03.909Z,99915.81
2023-03-07T22:43:32.762Z,99910.53
2023-03-07T22:46:02.668Z,99912.28
2023-03-07T22:48:30.920Z,99913.97
2023-03-07T22:50:59.070Z,99918.41
2023-03-07T22:53:30.838Z,99913.13
2023-03-07T22:56:00.283Z,99915.78
2023-03-07T22:58:28.858Z,99919.31
2023-03-07T23:00:56.566Z,99918.47
2023-03-07T23:03:25.790Z,99920.25
2023-03-07T23:05:53.561Z,99916.75
2023-03-07T23:08:21.632Z,99915.91
2023-03-07T23:10:49.315Z,99912.34
2023-03-07T23:13:17.380Z,99909.72
2023-03-07T23:15:45.199Z,99912.34
2023-03-07T23:18:12.995Z,99912.34
2023-03-07T23:20:42.153Z,99913.19
2023-03-07T23:23:09.861Z,99916.63
2023-03-07T23:25:42.162Z,99916.63
2023-03-07T23:28:10.209Z,99912.19
2023-03-07T23:30:38.701Z,99914.78
2023-03-07T23:33:06.496Z,99916.53
2023-03-07T23:35:34.593Z,99919.22
2023-03-07T23:38:04.308Z,99920.09
2023-03-07T23:40:32.103Z,99910.41
2023-03-07T23:43:00.120Z,99906.03
2023-03-07T23:45:27.921Z,99902.53
2023-03-07T23:47:55.698Z,99906.06
2023-03-07T23:50:23.883Z,99917.47
2023-03-07T23:52:51.586Z,99910.41
2023-03-07T23:55:20.731Z,99914.78
2023-03-07T23:57:48.872Z,99905.09
